Zuiderdam — PBIG — position and weather

sailwx.info

Track history (hours):
 
Tides and Currents Weather Stations Pressure Air Temp Water Temp Dewpoint Dewpoint Depression Visibility Wind Speed Wind Dir Waves Ship Positions

Zuiderdam (Netherlands)

Operator: Holland America Line

Last reported at 2017-Jun-26 08:22 UTC. Time now 2017-Jun-26 10:37 UTC.
Position N 60°52' E 007°07'.

Type: Passenger vessel. MMSI: 245304000.

Date/timePositionNaut miles runAvg speedWind from/ knotsBaromVisibWave heightAir tempDewpointWater temp
2017-Jun-26 08:22N 60°52' E 007°07'0 0.0
2017-Jun-26 07:58N 60°52' E 007°07'0 0.0
2017-Jun-26 07:28N 60°52' E 007°07'0 0.0
2017-Jun-26 07:00N 60°52' E 007°07'0 0.0
2017-Jun-26 06:30N 60°52' E 007°07'0 0.0
2017-Jun-26 05:58N 60°52' E 007°07'0 0.0
2017-Jun-26 05:28N 60°52' E 007°07'0 0.6
2017-Jun-26 05:00N 60°52' E 007°08'3 5.9
2017-Jun-26 04:30N 60°55' E 007°10'611.2
2017-Jun-26 04:00N 60°60' E 007°04'611.9
2017-Jun-26 03:30N 61°05' E 006°60'715.1
2017-Jun-26 03:00N 61°10' E 006°48'5336.5
2017-Jun-26 03:00N 61°06' E 006°54'1020.2 270 / 12997.0 5.4 6.0 13.0
2017-Jun-26 02:29N 61°08' E 006°33'1019.7
2017-Jun-26 02:00N 61°07' E 006°13'1020.8
2017-Jun-26 01:30N 61°08' E 005°52'1020.5
2017-Jun-26 01:00N 61°05' E 005°32'1019.1
2017-Jun-26 00:30N 61°06' E 005°12'918.9
2017-Jun-26 00:00N 61°02' E 004°54'1019.2
2017-Jun-25 23:30N 60°55' E 004°41'917.9
2017-Jun-25 23:00N 60°47' E 004°46'4 7.5
2017-Jun-25 22:30N 60°44' E 004°40'612.2
2017-Jun-25 22:00N 60°40' E 004°31'713.5
2017-Jun-25 21:29N 60°34' E 004°25'5816.5
2017-Jun-25 18:00N 59°36' E 004°24'1919.0 310 / 30995.010.8 14.0
2017-Jun-25 17:00N 59°18' E 004°36'1010.1 310 / 35994.010.8 14.0
2017-Jun-25 16:01N 59°10' E 004°47'016.9
2017-Jun-25 16:00N 59°10' E 004°48'649185.2
2017-Jun-25 16:00N 58°06' E 004°48'59122.2 270 / 41995.0 5.4 13.1 13.0
2017-Jun-25 15:31N 59°05' E 005°00'816.0
2017-Jun-25 15:00N 59°04' E 005°16'1413.8
2017-Jun-25 14:00N 59°00' E 005°42'2 3.7
2017-Jun-25 13:30N 58°58' E 005°44'0 0.0
2017-Jun-25 13:00N 58°58' E 005°44'0 0.0
2017-Jun-25 12:30N 58°58' E 005°44'0 0.0
2017-Jun-25 12:00N 58°58' E 005°44'0 0.0
2017-Jun-25 11:30N 58°58' E 005°44'0 0.0
2017-Jun-25 11:00N 58°58' E 005°44'0 0.0
2017-Jun-25 10:30N 58°58' E 005°44'0 0.0
2017-Jun-25 10:00N 58°58' E 005°44'0 0.0
2017-Jun-25 09:30N 58°58' E 005°44'0 0.0
2017-Jun-25 09:00N 58°58' E 005°44'0 0.0
2017-Jun-25 08:30N 58°58' E 005°44'0 0.0
2017-Jun-25 08:00N 58°58' E 005°44'0 0.0
2017-Jun-25 07:30N 58°58' E 005°44'0 0.0
2017-Jun-25 07:00N 58°58' E 005°44'0 0.0
2017-Jun-25 06:30N 58°58' E 005°44'0 0.0
2017-Jun-25 06:00N 58°58' E 005°44'0 0.0
2017-Jun-25 05:30N 58°58' E 005°44'0 0.0
2017-Jun-25 05:00N 58°58' E 005°44'0 0.0
2017-Jun-25 04:30N 58°58' E 005°44'2 4.3
2017-Jun-25 04:00N 59°00' E 005°41'5 9.8
2017-Jun-25 03:30N 59°02' E 005°33'612.4
2017-Jun-25 03:00N 58°56' E 005°33'611.1
2017-Jun-25 02:30N 58°51' E 005°30'612.7
2017-Jun-25 02:01N 58°46' E 005°22'2121.6
2017-Jun-25 02:00N 58°48' E 005°24'1020.7 250 / 23995.0 5.4 12.0 13.0
2017-Jun-25 01:31N 58°38' E 005°20'816.0
2017-Jun-25 01:01N 58°30' E 005°18'713.3
2017-Jun-25 00:30N 58°24' E 005°19'611.2
2017-Jun-25 00:00N 58°20' E 005°27'611.4
2017-Jun-24 23:30N 58°16' E 005°35'611.6
2017-Jun-24 23:00N 58°12' E 005°43'7468.0
2017-Jun-24 23:00N 58°12' E 005°30'1224.6 230 / 30998.010.8 12.0 17.0
2017-Jun-24 22:30N 58°08' E 005°52'612.2
2017-Jun-24 21:59N 58°04' E 006°01'611.8
2017-Jun-24 21:30N 58°01' E 006°10'612.0
2017-Jun-24 21:00N 57°57' E 006°18'612.0
2017-Jun-24 20:28N 57°53' E 006°28'612.1
2017-Jun-24 20:00N 57°50' E 006°37'611.5
2017-Jun-24 19:30N 57°49' E 006°47'611.4
2017-Jun-24 19:00N 57°50' E 006°58'611.9
2017-Jun-24 18:30N 57°51' E 007°08'612.0
2017-Jun-24 18:00N 57°53' E 007°19'611.7
2017-Jun-24 17:30N 57°54' E 007°30'611.7
2017-Jun-24 17:00N 57°56' E 007°41'611.8
2017-Jun-24 16:30N 57°58' E 007°51'611.1
2017-Jun-24 16:00N 58°01' E 008°00'1168.4
2017-Jun-24 16:00N 58°00' E 008°00'510.3 260 / 351001.010.8 14.0 14.0
2017-Jun-24 15:30N 58°04' E 008°05'5 9.5
2017-Jun-24 15:00N 58°08' E 007°59'0 0.2
2017-Jun-24 13:59N 58°08' E 007°60'0 0.0
2017-Jun-24 13:29N 58°08' E 007°60'0 0.0
2017-Jun-24 12:59N 58°08' E 007°60'0 0.0
2017-Jun-24 12:29N 58°08' E 007°60'0 0.0
2017-Jun-24 11:59N 58°08' E 007°60'0 0.0
2017-Jun-24 11:29N 58°08' E 007°60'0 0.0
2017-Jun-24 10:59N 58°08' E 007°60'0 0.0
2017-Jun-24 10:29N 58°08' E 007°60'0 0.0
2017-Jun-24 09:59N 58°08' E 007°60'0 0.0
2017-Jun-24 09:29N 58°08' E 007°60'0 0.0
2017-Jun-24 08:59N 58°08' E 007°60'0 0.0
2017-Jun-24 08:29N 58°08' E 007°60'0 0.0
2017-Jun-24 07:59N 58°08' E 007°60'0 0.0
2017-Jun-24 07:29N 58°08' E 007°60'0 0.0
2017-Jun-24 06:59N 58°08' E 007°60'0 0.0
2017-Jun-24 06:29N 58°08' E 007°60'0 0.0
2017-Jun-24 05:59N 58°08' E 007°60'0 0.0
2017-Jun-24 05:29N 58°08' E 007°60'1 2.3
2017-Jun-24 05:00N 58°07' E 008°01'611.6
2017-Jun-24 04:30N 58°03' E 008°08'611.3
2017-Jun-24 04:00N 58°05' E 008°18'6382.2
2017-Jun-24 04:00N 58°00' E 008°12'1123.6 290 / 151002.010.8 15.0 13.0
2017-Jun-24 03:30N 58°08' E 008°28'611.6
2017-Jun-24 03:00N 58°11' E 008°37'9567.4
2017-Jun-24 03:00N 58°06' E 008°24'1529.9 280 / 221002.010.8 15.0 13.0
2017-Jun-24 02:30N 58°14' E 008°47'612.2
2017-Jun-24 02:00N 58°18' E 008°56'612.5
2017-Jun-24 01:30N 58°21' E 009°07'612.3
2017-Jun-24 01:00N 58°24' E 009°16'612.4
2017-Jun-24 00:30N 58°28' E 009°26'612.4
2017-Jun-24 00:00N 58°32' E 009°35'1112.7
2017-Jun-23 23:07N 58°40' E 009°51'112.5
2017-Jun-23 23:00N 58°40' E 009°53'612.5
2017-Jun-23 22:30N 58°45' E 010°01'612.5
2017-Jun-23 22:00N 58°49' E 010°10'2100.9
2017-Jun-23 22:00N 58°48' E 010°12'613.0 230 / 321001.010.8 18.0
2017-Jun-23 21:30N 58°53' E 010°18'611.2
2017-Jun-23 21:00N 58°57' E 010°26'611.1
2017-Jun-23 20:30N 59°01' E 010°33'5 9.3
2017-Jun-23 20:00N 59°06' E 010°36'713.9
2017-Jun-23 19:30N 59°13' E 010°37'815.9
2017-Jun-23 19:00N 59°21' E 010°35'815.8
2017-Jun-23 18:30N 59°28' E 010°34'713.9
2017-Jun-23 18:00N 59°35' E 010°38'510.0
2017-Jun-23 17:30N 59°40' E 010°37'5 9.8
2017-Jun-23 17:01N 59°45' E 010°33'714.9
2017-Jun-23 16:30N 59°52' E 010°38'4 8.4
2017-Jun-23 16:01N 59°54' E 010°44'0 0.2
2017-Jun-23 15:30N 59°54' E 010°44'0 0.0
2017-Jun-23 15:00N 59°54' E 010°44'0 0.0
2017-Jun-23 14:00N 59°54' E 010°44'0 0.0
2017-Jun-23 13:30N 59°54' E 010°44'0 0.0
2017-Jun-23 13:00N 59°54' E 010°44'0 0.0
2017-Jun-23 12:30N 59°54' E 010°44'0 0.0
2017-Jun-23 12:00N 59°54' E 010°44'0 0.0
2017-Jun-23 11:30N 59°54' E 010°44'0 0.0
2017-Jun-23 11:00N 59°54' E 010°44'0 0.0
2017-Jun-23 10:30N 59°54' E 010°44'0 0.0
2017-Jun-23 10:00N 59°54' E 010°44'0 0.0
2017-Jun-23 09:30N 59°54' E 010°44'0 0.0
2017-Jun-23 09:00N 59°54' E 010°44'0 0.0
2017-Jun-23 08:30N 59°54' E 010°44'0 0.0
2017-Jun-23 08:00N 59°54' E 010°44'0 0.0
2017-Jun-23 07:30N 59°54' E 010°44'1 2.9
2017-Jun-23 07:01N 59°54' E 010°42'3 5.3
2017-Jun-23 06:30N 59°52' E 010°38'612.9
2017-Jun-23 06:00N 59°46' E 010°34'510.9
2017-Jun-23 05:30N 59°40' E 010°37'611.5
2017-Jun-23 05:00N 59°35' E 010°38'5306.8
2017-Jun-23 05:00N 59°30' E 010°36'2 4.3 1004.010.8 15.0 16.0
2017-Jun-23 04:31N 59°28' E 010°34'816.5
2017-Jun-23 04:01N 59°20' E 010°36'5307.2
2017-Jun-23 04:00N 59°24' E 010°30'1428.3 1006.010.8 15.0 16.0
2017-Jun-23 03:30N 59°11' E 010°39'714.5
2017-Jun-23 03:01N 59°04' E 010°35'612.6
2017-Jun-23 02:30N 58°58' E 010°36'612.7
2017-Jun-23 02:01N 58°52' E 010°38'815.3
2017-Jun-23 01:31N 58°44' E 010°40'917.7
2017-Jun-23 01:00N 58°35' E 010°42'816.9
2017-Jun-23 00:31N 58°27' E 010°43'917.4
2017-Jun-22 23:59N 58°18' E 010°46'917.1
2017-Jun-22 23:29N 58°09' E 010°48'817.5
2017-Jun-22 23:01N 58°01' E 010°50'917.5
2017-Jun-22 22:30N 57°53' E 010°57'917.6
2017-Jun-22 22:00N 57°46' E 011°06'816.9
2017-Jun-22 21:30N 57°39' E 011°15'919.1
2017-Jun-22 21:01N 57°31' E 011°26'1020.3
2017-Jun-22 20:30N 57°22' E 011°31'1020.1
2017-Jun-22 19:59N 57°12' E 011°37'1020.0
2017-Jun-22 19:30N 57°02' E 011°44'1020.1
2017-Jun-22 19:00N 56°53' E 011°50'5407.6
2017-Jun-22 19:00N 56°48' E 011°48'612.6 100 / 141006.010.8 -0.0-21.614.0
2017-Jun-22 18:31N 56°44' E 011°56'1019.2
2017-Jun-22 18:00N 56°34' E 011°58'1019.7
2017-Jun-22 17:29N 56°25' E 012°02'1325.5
2017-Jun-22 17:00N 56°12' E 012°06'5162.2 120 / 141006.210.8 16.0 14.0
2017-Jun-22 16:58N 56°16' E 012°12'920.2
2017-Jun-22 16:31N 56°11' E 012°25'1019.4
2017-Jun-22 16:01N 56°04' E 012°38'4267.3
2017-Jun-22 16:00N 56°00' E 012°36'611.5 140 / 111008.510.8 16.210.214.3
2017-Jun-22 15:31N 55°56' E 012°43'815.2
2017-Jun-22 15:00N 55°49' E 012°44'613.0
2017-Jun-22 14:30N 55°43' E 012°38'2 0.2
2017-Jun-22 05:00N 55°42' E 012°36'1 0.9 250 / 81013.010.8 14.012.217.0
2017-Jun-22 03:27N 55°43' E 012°38'1 0.3
2017-Jun-21 23:00N 55°42' E 012°36'1 0.4 300 / 81014.010.8 15.0 18.0
2017-Jun-21 19:57N 55°43' E 012°38'0 0.0
2017-Jun-21 19:27N 55°43' E 012°38'0 0.0
2017-Jun-21 18:57N 55°43' E 012°38'0 0.0
2017-Jun-21 18:27N 55°43' E 012°38'0 0.0
2017-Jun-21 17:57N 55°43' E 012°38'0 0.0
2017-Jun-21 17:27N 55°43' E 012°38'0 0.0
2017-Jun-21 16:57N 55°43' E 012°38'0 0.0
2017-Jun-21 16:27N 55°43' E 012°38'0 0.0
2017-Jun-21 15:57N 55°43' E 012°38'0 0.0
2017-Jun-21 15:27N 55°43' E 012°38'0 0.0
2017-Jun-21 14:57N 55°43' E 012°38'0 0.0
2017-Jun-21 14:27N 55°43' E 012°38'0 0.0
2017-Jun-21 13:27N 55°43' E 012°38'0 0.0
2017-Jun-21 12:57N 55°43' E 012°38'0 0.0
2017-Jun-21 12:27N 55°43' E 012°38'0 0.0
2017-Jun-21 11:57N 55°43' E 012°38'0 0.0
2017-Jun-21 11:27N 55°43' E 012°38'0 0.0
2017-Jun-21 10:57N 55°43' E 012°38'0 0.0
2017-Jun-21 10:30N 55°43' E 012°38'0 0.0
2017-Jun-21 10:00N 55°43' E 012°38'0 0.0
2017-Jun-21 09:30N 55°43' E 012°38'0 0.0
2017-Jun-21 09:00N 55°43' E 012°38'0 0.0
2017-Jun-21 08:30N 55°43' E 012°38'0 0.1
2017-Jun-21 08:00N 55°43' E 012°38'3 5.4
2017-Jun-21 07:30N 55°45' E 012°41'713.2
2017-Jun-21 07:00N 55°52' E 012°41'815.4
2017-Jun-21 06:31N 55°59' E 012°41'816.7
2017-Jun-21 06:00N 56°06' E 012°33'917.3
2017-Jun-21 05:30N 56°12' E 012°20'815.7
2017-Jun-21 05:00N 56°11' E 012°06'6412.9
2017-Jun-21 05:00N 56°06' E 012°00'612.1 310 / 201015.010.8 18.0
2017-Jun-21 04:30N 56°08' E 011°50'2617.2
2017-Jun-21 03:00N 56°00' E 011°06'3718.3 300 / 351015.010.8 13.0 18.0
2017-Jun-21 01:00N 55°24' E 010°54'1014.4 300 / 251017.010.8 13.0 15.0
2017-Jun-21 00:18N 55°16' E 011°05'517.1
2017-Jun-21 00:01N 55°11' E 011°05'3166.4
2017-Jun-21 00:00N 55°12' E 011°00'1020.4 290 / 251016.010.8 13.0 15.0
2017-Jun-20 23:30N 55°02' E 011°02'917.2
2017-Jun-20 23:01N 54°55' E 010°55'815.9
2017-Jun-20 22:31N 54°47' E 010°53'714.4
2017-Jun-20 22:01N 54°40' E 010°58'918.0
2017-Jun-20 21:30N 54°36' E 011°11'918.6
2017-Jun-20 21:00N 54°32' E 011°26'3191.1
2017-Jun-20 21:00N 54°30' E 011°30'1514.3 260 / 271017.410.8 16.1 15.0
2017-Jun-20 19:55N 54°23' E 011°53'914.0
2017-Jun-20 19:17N 54°16' E 012°03'3 9.6
2017-Jun-20 18:59N 54°13' E 012°04'3 0.2
2017-Jun-20 03:31N 54°10' E 012°06'1 2.9
2017-Jun-20 03:01N 54°12' E 012°05'1111.9
2017-Jun-20 02:04N 54°22' E 011°57'113.6
2017-Jun-20 02:00N 54°23' E 011°57'511.0
2017-Jun-20 01:31N 54°26' E 012°04'611.7
2017-Jun-20 01:01N 54°29' E 012°13'6380.8
2017-Jun-20 01:00N 54°24' E 012°06'1327.1 260 / 161013.610.8 15.1 15.0
2017-Jun-20 00:31N 54°36' E 012°16'917.1
2017-Jun-20 00:01N 54°42' E 012°27'1413.6
2017-Jun-19 23:00N 54°48' E 012°48'1015.3 210 / 181017.610.8 15.1 15.0
2017-Jun-19 22:21N 54°52' E 013°04'514.2
2017-Jun-19 22:00N 54°53' E 013°12'2713.9
2017-Jun-19 20:05N 55°03' E 013°55'335.2
2017-Jun-19 20:00N 55°00' E 013°54'4232.0 230 / 191017.610.8 15.1 14.1
2017-Jun-19 19:58N 55°04' E 013°57'713.6
2017-Jun-19 19:29N 55°07' E 014°07'714.0
2017-Jun-19 19:00N 55°12' E 014°15'713.9
2017-Jun-19 18:30N 55°18' E 014°23'713.8
2017-Jun-19 18:00N 55°23' E 014°31'713.5
2017-Jun-19 17:29N 55°28' E 014°39'715.0
2017-Jun-19 17:01N 55°32' E 014°50'815.5
2017-Jun-19 16:31N 55°36' E 015°02'815.3
2017-Jun-19 16:00N 55°40' E 015°13'815.1
2017-Jun-19 15:31N 55°44' E 015°25'815.5
2017-Jun-19 15:00N 55°47' E 015°37'1615.9
2017-Jun-19 14:01N 55°55' E 016°01'815.7
2017-Jun-19 13:31N 55°59' E 016°14'815.5
2017-Jun-19 13:01N 56°03' E 016°26'815.8
2017-Jun-19 12:30N 56°07' E 016°38'815.4
2017-Jun-19 12:00N 56°13' E 016°47'816.0
2017-Jun-19 11:31N 56°20' E 016°53'815.9
2017-Jun-19 11:00N 56°28' E 016°58'14715.2
2017-Jun-19 01:22N 58°39' E 018°59'613.9
2017-Jun-19 00:58N 58°44' E 019°04'714.0
2017-Jun-19 00:29N 58°50' E 019°11'613.9
2017-Jun-19 00:00N 58°55' E 019°17'8517.8
2017-Jun-19 00:00N 58°48' E 019°12'1530.5 270 / 201011.010.8 12.2 13.0
2017-Jun-18 23:30N 59°01' E 019°24'713.7
2017-Jun-18 23:01N 59°07' E 019°31'713.6
2017-Jun-18 22:30N 59°13' E 019°38'714.0
2017-Jun-18 22:00N 59°19' E 019°45'714.1
2017-Jun-18 21:30N 59°25' E 019°51'714.3
2017-Jun-18 21:00N 59°32' E 019°57'713.6
2017-Jun-18 20:30N 59°38' E 019°55'713.8
2017-Jun-18 20:01N 59°44' E 019°45'714.0
2017-Jun-18 19:30N 59°47' E 019°34'714.3
2017-Jun-18 19:00N 59°46' E 019°20'816.0
2017-Jun-18 18:31N 59°43' E 019°05'713.2
2017-Jun-18 18:00N 59°39' E 018°54'611.2
2017-Jun-18 17:30N 59°36' E 018°45'611.3
2017-Jun-18 17:00N 59°33' E 018°36'5 9.9
2017-Jun-18 16:30N 59°30' E 018°28'510.6
2017-Jun-18 16:00N 59°25' E 018°24'3 6.7
2017-Jun-18 15:30N 59°22' E 018°25'5 9.9
2017-Jun-18 15:00N 59°21' E 018°15'5 9.8
2017-Jun-18 14:30N 59°19' E 018°07'0 0.0
2017-Jun-17 14:20N 59°19' E 018°06'0 0.0
2017-Jun-17 13:26N 59°19' E 018°06'0 0.0
2017-Jun-17 12:56N 59°19' E 018°06'0 0.0
2017-Jun-17 12:26N 59°19' E 018°06'0 0.0
2017-Jun-17 11:56N 59°19' E 018°06'0 0.0
2017-Jun-17 11:26N 59°19' E 018°06'0 0.0
2017-Jun-17 10:59N 59°19' E 018°06'0 0.0
2017-Jun-17 10:29N 59°19' E 018°06'0 0.0
2017-Jun-17 09:59N 59°19' E 018°06'0 0.0
2017-Jun-17 09:29N 59°19' E 018°06'0 0.0
2017-Jun-17 08:59N 59°19' E 018°06'0 0.0
2017-Jun-17 08:29N 59°19' E 018°06'0 0.0
2017-Jun-17 07:59N 59°19' E 018°06'0 0.7
2017-Jun-17 07:31N 59°19' E 018°07'4 8.5
2017-Jun-17 07:00N 59°21' E 018°14'510.1
2017-Jun-17 06:30N 59°22' E 018°24'3 5.7
2017-Jun-17 06:00N 59°25' E 018°25'510.6
2017-Jun-17 05:30N 59°30' E 018°28'510.2
2017-Jun-17 05:00N 59°33' E 018°36'511.0
2017-Jun-17 04:30N 59°36' E 018°45'611.7
2017-Jun-17 04:01N 59°39' E 018°55'612.8
2017-Jun-17 03:30N 59°43' E 019°05'918.2
2017-Jun-17 03:01N 59°46' E 019°22'3 5.0
2017-Jun-17 02:30N 59°48' E 019°26'0 0.3
2017-Jun-17 02:01N 59°48' E 019°25'0 0.2
2017-Jun-17 01:31N 59°48' E 019°25'0 0.9
2017-Jun-17 01:01N 59°47' E 019°25'1 2.6
2017-Jun-17 00:31N 59°47' E 019°27'611.3
2017-Jun-17 00:00N 59°49' E 019°38'917.2
2017-Jun-16 23:31N 59°44' E 019°52'918.3
2017-Jun-16 23:01N 59°38' E 020°05'918.0
2017-Jun-16 22:31N 59°36' E 020°23'918.4
2017-Jun-16 22:01N 59°35' E 020°41'1019.1
2017-Jun-16 21:31N 59°33' E 020°59'1019.2
2017-Jun-16 21:01N 59°32' E 021°18'1019.3
2017-Jun-16 20:31N 59°30' E 021°37'1019.3
2017-Jun-16 20:01N 59°29' E 021°56'1019.5
2017-Jun-16 19:31N 59°28' E 022°15'1019.1
2017-Jun-16 19:01N 59°30' E 022°33'298.6
2017-Jun-16 19:00N 59°30' E 022°30'1123.2 070 / 101010.010.8 14.2 13.0
2017-Jun-16 18:31N 59°33' E 022°51'1019.3
2017-Jun-16 18:01N 59°36' E 023°10'7447.2
2017-Jun-16 18:00N 59°30' E 023°00'1634.1 050 / 61010.110.8 16.0 13.0
2017-Jun-16 17:31N 59°38' E 023°28'1019.1
2017-Jun-16 17:01N 59°41' E 023°46'1019.1
2017-Jun-16 16:31N 59°44' E 024°04'1019.0
2017-Jun-16 16:00N 59°47' E 024°22'918.1
2017-Jun-16 15:31N 59°51' E 024°38'917.8
2017-Jun-16 15:00N 59°58' E 024°50'611.4
2017-Jun-16 14:31N 60°03' E 024°54'  
Track history (hours):
 
Tides and Currents Weather Stations Pressure Air Temp Water Temp Dewpoint Dewpoint Depression Visibility Wind Speed Wind Dir Waves Ship Positions

Zuiderdam (Netherlands)

Operator: Holland America Line

Last reported at 2017-Jun-26 08:22 UTC. Time now 2017-Jun-26 10:37 UTC.
Position N 60°52' E 007°07'.

Type: Passenger vessel. MMSI: 245304000.

Date/timePositionNaut miles runAvg speedWind from/ knotsBaromVisibWave heightAir tempDewpointWater temp
2017-Jun-26 08:22N 60°52' E 007°07'0 0.0
2017-Jun-26 07:58N 60°52' E 007°07'0 0.0
2017-Jun-26 07:28N 60°52' E 007°07'0 0.0
2017-Jun-26 07:00N 60°52' E 007°07'0 0.0
2017-Jun-26 06:30N 60°52' E 007°07'0 0.0
2017-Jun-26 05:58N 60°52' E 007°07'0 0.0
2017-Jun-26 05:28N 60°52' E 007°07'0 0.6
2017-Jun-26 05:00N 60°52' E 007°08'3 5.9
2017-Jun-26 04:30N 60°55' E 007°10'611.2
2017-Jun-26 04:00N 60°60' E 007°04'611.9
2017-Jun-26 03:30N 61°05' E 006°60'715.1
2017-Jun-26 03:00N 61°10' E 006°48'5336.5
2017-Jun-26 03:00N 61°06' E 006°54'1020.2 270 / 12997.0 5.4 6.0 13.0
2017-Jun-26 02:29N 61°08' E 006°33'1019.7
2017-Jun-26 02:00N 61°07' E 006°13'1020.8
2017-Jun-26 01:30N 61°08' E 005°52'1020.5
2017-Jun-26 01:00N 61°05' E 005°32'1019.1
2017-Jun-26 00:30N 61°06' E 005°12'918.9
2017-Jun-26 00:00N 61°02' E 004°54'1019.2
2017-Jun-25 23:30N 60°55' E 004°41'917.9
2017-Jun-25 23:00N 60°47' E 004°46'4 7.5
2017-Jun-25 22:30N 60°44' E 004°40'612.2
2017-Jun-25 22:00N 60°40' E 004°31'713.5
2017-Jun-25 21:29N 60°34' E 004°25'5816.5
2017-Jun-25 18:00N 59°36' E 004°24'1919.0 310 / 30995.010.8 14.0
2017-Jun-25 17:00N 59°18' E 004°36'1010.1 310 / 35994.010.8 14.0
2017-Jun-25 16:01N 59°10' E 004°47'016.9
2017-Jun-25 16:00N 59°10' E 004°48'649185.2
2017-Jun-25 16:00N 58°06' E 004°48'59122.2 270 / 41995.0 5.4 13.1 13.0
2017-Jun-25 15:31N 59°05' E 005°00'816.0
2017-Jun-25 15:00N 59°04' E 005°16'1413.8
2017-Jun-25 14:00N 59°00' E 005°42'2 3.7
2017-Jun-25 13:30N 58°58' E 005°44'0 0.0
2017-Jun-25 13:00N 58°58' E 005°44'0 0.0
2017-Jun-25 12:30N 58°58' E 005°44'0 0.0
2017-Jun-25 12:00N 58°58' E 005°44'0 0.0
2017-Jun-25 11:30N 58°58' E 005°44'0 0.0
2017-Jun-25 11:00N 58°58' E 005°44'0 0.0
2017-Jun-25 10:30N 58°58' E 005°44'0 0.0
2017-Jun-25 10:00N 58°58' E 005°44'0 0.0
2017-Jun-25 09:30N 58°58' E 005°44'0 0.0
2017-Jun-25 09:00N 58°58' E 005°44'0 0.0
2017-Jun-25 08:30N 58°58' E 005°44'0 0.0
2017-Jun-25 08:00N 58°58' E 005°44'0 0.0
2017-Jun-25 07:30N 58°58' E 005°44'0 0.0
2017-Jun-25 07:00N 58°58' E 005°44'0 0.0
2017-Jun-25 06:30N 58°58' E 005°44'0 0.0
2017-Jun-25 06:00N 58°58' E 005°44'0 0.0
2017-Jun-25 05:30N 58°58' E 005°44'0 0.0
2017-Jun-25 05:00N 58°58' E 005°44'0 0.0
2017-Jun-25 04:30N 58°58' E 005°44'2 4.3
2017-Jun-25 04:00N 59°00' E 005°41'5 9.8
2017-Jun-25 03:30N 59°02' E 005°33'612.4
2017-Jun-25 03:00N 58°56' E 005°33'611.1
2017-Jun-25 02:30N 58°51' E 005°30'612.7
2017-Jun-25 02:01N 58°46' E 005°22'2121.6
2017-Jun-25 02:00N 58°48' E 005°24'1020.7 250 / 23995.0 5.4 12.0 13.0
2017-Jun-25 01:31N 58°38' E 005°20'816.0
2017-Jun-25 01:01N 58°30' E 005°18'713.3
2017-Jun-25 00:30N 58°24' E 005°19'611.2
2017-Jun-25 00:00N 58°20' E 005°27'611.4
2017-Jun-24 23:30N 58°16' E 005°35'611.6
2017-Jun-24 23:00N 58°12' E 005°43'7468.0
2017-Jun-24 23:00N 58°12' E 005°30'1224.6 230 / 30998.010.8 12.0 17.0
2017-Jun-24 22:30N 58°08' E 005°52'612.2
2017-Jun-24 21:59N 58°04' E 006°01'611.8
2017-Jun-24 21:30N 58°01' E 006°10'612.0
2017-Jun-24 21:00N 57°57' E 006°18'612.0
2017-Jun-24 20:28N 57°53' E 006°28'612.1
2017-Jun-24 20:00N 57°50' E 006°37'611.5
2017-Jun-24 19:30N 57°49' E 006°47'611.4
2017-Jun-24 19:00N 57°50' E 006°58'611.9
2017-Jun-24 18:30N 57°51' E 007°08'612.0
2017-Jun-24 18:00N 57°53' E 007°19'611.7
2017-Jun-24 17:30N 57°54' E 007°30'611.7
2017-Jun-24 17:00N 57°56' E 007°41'611.8
2017-Jun-24 16:30N 57°58' E 007°51'611.1
2017-Jun-24 16:00N 58°01' E 008°00'1168.4
2017-Jun-24 16:00N 58°00' E 008°00'510.3 260 / 351001.010.8 14.0 14.0
2017-Jun-24 15:30N 58°04' E 008°05'5 9.5
2017-Jun-24 15:00N 58°08' E 007°59'0 0.2
2017-Jun-24 13:59N 58°08' E 007°60'0 0.0
2017-Jun-24 13:29N 58°08' E 007°60'0 0.0
2017-Jun-24 12:59N 58°08' E 007°60'0 0.0
2017-Jun-24 12:29N 58°08' E 007°60'0 0.0
2017-Jun-24 11:59N 58°08' E 007°60'0 0.0
2017-Jun-24 11:29N 58°08' E 007°60'0 0.0
2017-Jun-24 10:59N 58°08' E 007°60'0 0.0
2017-Jun-24 10:29N 58°08' E 007°60'0 0.0
2017-Jun-24 09:59N 58°08' E 007°60'0 0.0
2017-Jun-24 09:29N 58°08' E 007°60'0 0.0
2017-Jun-24 08:59N 58°08' E 007°60'0 0.0
2017-Jun-24 08:29N 58°08' E 007°60'0 0.0
2017-Jun-24 07:59N 58°08' E 007°60'0 0.0
2017-Jun-24 07:29N 58°08' E 007°60'0 0.0
2017-Jun-24 06:59N 58°08' E 007°60'0 0.0
2017-Jun-24 06:29N 58°08' E 007°60'0 0.0
2017-Jun-24 05:59N 58°08' E 007°60'0 0.0
2017-Jun-24 05:29N 58°08' E 007°60'1 2.3
2017-Jun-24 05:00N 58°07' E 008°01'611.6
2017-Jun-24 04:30N 58°03' E 008°08'611.3
2017-Jun-24 04:00N 58°05' E 008°18'6382.2
2017-Jun-24 04:00N 58°00' E 008°12'1123.6 290 / 151002.010.8 15.0 13.0
2017-Jun-24 03:30N 58°08' E 008°28'611.6
2017-Jun-24 03:00N 58°11' E 008°37'9567.4
2017-Jun-24 03:00N 58°06' E 008°24'1529.9 280 / 221002.010.8 15.0 13.0
2017-Jun-24 02:30N 58°14' E 008°47'612.2
2017-Jun-24 02:00N 58°18' E 008°56'612.5
2017-Jun-24 01:30N 58°21' E 009°07'612.3
2017-Jun-24 01:00N 58°24' E 009°16'612.4
2017-Jun-24 00:30N 58°28' E 009°26'612.4
2017-Jun-24 00:00N 58°32' E 009°35'1112.7
2017-Jun-23 23:07N 58°40' E 009°51'112.5
2017-Jun-23 23:00N 58°40' E 009°53'612.5
2017-Jun-23 22:30N 58°45' E 010°01'612.5
2017-Jun-23 22:00N 58°49' E 010°10'2100.9
2017-Jun-23 22:00N 58°48' E 010°12'613.0 230 / 321001.010.8 18.0
2017-Jun-23 21:30N 58°53' E 010°18'611.2
2017-Jun-23 21:00N 58°57' E 010°26'611.1
2017-Jun-23 20:30N 59°01' E 010°33'5 9.3
2017-Jun-23 20:00N 59°06' E 010°36'713.9
2017-Jun-23 19:30N 59°13' E 010°37'815.9
2017-Jun-23 19:00N 59°21' E 010°35'815.8
2017-Jun-23 18:30N 59°28' E 010°34'713.9
2017-Jun-23 18:00N 59°35' E 010°38'510.0
2017-Jun-23 17:30N 59°40' E 010°37'5 9.8
2017-Jun-23 17:01N 59°45' E 010°33'714.9
2017-Jun-23 16:30N 59°52' E 010°38'4 8.4
2017-Jun-23 16:01N 59°54' E 010°44'0 0.2
2017-Jun-23 15:30N 59°54' E 010°44'0 0.0
2017-Jun-23 15:00N 59°54' E 010°44'0 0.0
2017-Jun-23 14:00N 59°54' E 010°44'0 0.0
2017-Jun-23 13:30N 59°54' E 010°44'0 0.0
2017-Jun-23 13:00N 59°54' E 010°44'0 0.0
2017-Jun-23 12:30N 59°54' E 010°44'0 0.0
2017-Jun-23 12:00N 59°54' E 010°44'0 0.0
2017-Jun-23 11:30N 59°54' E 010°44'0 0.0
2017-Jun-23 11:00N 59°54' E 010°44'0 0.0
2017-Jun-23 10:30N 59°54' E 010°44'0 0.0
2017-Jun-23 10:00N 59°54' E 010°44'0 0.0
2017-Jun-23 09:30N 59°54' E 010°44'0 0.0
2017-Jun-23 09:00N 59°54' E 010°44'0 0.0
2017-Jun-23 08:30N 59°54' E 010°44'0 0.0
2017-Jun-23 08:00N 59°54' E 010°44'0 0.0
2017-Jun-23 07:30N 59°54' E 010°44'1 2.9
2017-Jun-23 07:01N 59°54' E 010°42'3 5.3
2017-Jun-23 06:30N 59°52' E 010°38'612.9
2017-Jun-23 06:00N 59°46' E 010°34'510.9
2017-Jun-23 05:30N 59°40' E 010°37'611.5
2017-Jun-23 05:00N 59°35' E 010°38'5306.8
2017-Jun-23 05:00N 59°30' E 010°36'2 4.3 1004.010.8 15.0 16.0
2017-Jun-23 04:31N 59°28' E 010°34'816.5
2017-Jun-23 04:01N 59°20' E 010°36'5307.2
2017-Jun-23 04:00N 59°24' E 010°30'1428.3 1006.010.8 15.0 16.0
2017-Jun-23 03:30N 59°11' E 010°39'714.5
2017-Jun-23 03:01N 59°04' E 010°35'612.6
2017-Jun-23 02:30N 58°58' E 010°36'612.7
2017-Jun-23 02:01N 58°52' E 010°38'815.3
2017-Jun-23 01:31N 58°44' E 010°40'917.7
2017-Jun-23 01:00N 58°35' E 010°42'816.9
2017-Jun-23 00:31N 58°27' E 010°43'917.4
2017-Jun-22 23:59N 58°18' E 010°46'917.1
2017-Jun-22 23:29N 58°09' E 010°48'817.5
2017-Jun-22 23:01N 58°01' E 010°50'917.5
2017-Jun-22 22:30N 57°53' E 010°57'917.6
2017-Jun-22 22:00N 57°46' E 011°06'816.9
2017-Jun-22 21:30N 57°39' E 011°15'919.1
2017-Jun-22 21:01N 57°31' E 011°26'1020.3
2017-Jun-22 20:30N 57°22' E 011°31'1020.1
2017-Jun-22 19:59N 57°12' E 011°37'1020.0
2017-Jun-22 19:30N 57°02' E 011°44'1020.1
2017-Jun-22 19:00N 56°53' E 011°50'5407.6
2017-Jun-22 19:00N 56°48' E 011°48'612.6 100 / 141006.010.8 -0.0-21.614.0
2017-Jun-22 18:31N 56°44' E 011°56'1019.2
2017-Jun-22 18:00N 56°34' E 011°58'1019.7
2017-Jun-22 17:29N 56°25' E 012°02'1325.5
2017-Jun-22 17:00N 56°12' E 012°06'5162.2 120 / 141006.210.8 16.0 14.0
2017-Jun-22 16:58N 56°16' E 012°12'920.2
2017-Jun-22 16:31N 56°11' E 012°25'1019.4
2017-Jun-22 16:01N 56°04' E 012°38'4267.3
2017-Jun-22 16:00N 56°00' E 012°36'611.5 140 / 111008.510.8 16.210.214.3
2017-Jun-22 15:31N 55°56' E 012°43'815.2
2017-Jun-22 15:00N 55°49' E 012°44'613.0
2017-Jun-22 14:30N 55°43' E 012°38'2 0.2
2017-Jun-22 05:00N 55°42' E 012°36'1 0.9 250 / 81013.010.8 14.012.217.0
2017-Jun-22 03:27N 55°43' E 012°38'1 0.3
2017-Jun-21 23:00N 55°42' E 012°36'1 0.4 300 / 81014.010.8 15.0 18.0
2017-Jun-21 19:57N 55°43' E 012°38'0 0.0
2017-Jun-21 19:27N 55°43' E 012°38'0 0.0
2017-Jun-21 18:57N 55°43' E 012°38'0 0.0
2017-Jun-21 18:27N 55°43' E 012°38'0 0.0
2017-Jun-21 17:57N 55°43' E 012°38'0 0.0
2017-Jun-21 17:27N 55°43' E 012°38'0 0.0
2017-Jun-21 16:57N 55°43' E 012°38'0 0.0
2017-Jun-21 16:27N 55°43' E 012°38'0 0.0
2017-Jun-21 15:57N 55°43' E 012°38'0 0.0
2017-Jun-21 15:27N 55°43' E 012°38'0 0.0
2017-Jun-21 14:57N 55°43' E 012°38'0 0.0
2017-Jun-21 14:27N 55°43' E 012°38'0 0.0
2017-Jun-21 13:27N 55°43' E 012°38'0 0.0
2017-Jun-21 12:57N 55°43' E 012°38'0 0.0
2017-Jun-21 12:27N 55°43' E 012°38'0 0.0
2017-Jun-21 11:57N 55°43' E 012°38'0 0.0
2017-Jun-21 11:27N 55°43' E 012°38'0 0.0
2017-Jun-21 10:57N 55°43' E 012°38'0 0.0
2017-Jun-21 10:30N 55°43' E 012°38'0 0.0
2017-Jun-21 10:00N 55°43' E 012°38'0 0.0
2017-Jun-21 09:30N 55°43' E 012°38'0 0.0
2017-Jun-21 09:00N 55°43' E 012°38'0 0.0
2017-Jun-21 08:30N 55°43' E 012°38'0 0.1
2017-Jun-21 08:00N 55°43' E 012°38'3 5.4
2017-Jun-21 07:30N 55°45' E 012°41'713.2
2017-Jun-21 07:00N 55°52' E 012°41'815.4
2017-Jun-21 06:31N 55°59' E 012°41'816.7
2017-Jun-21 06:00N 56°06' E 012°33'917.3
2017-Jun-21 05:30N 56°12' E 012°20'815.7
2017-Jun-21 05:00N 56°11' E 012°06'6412.9
2017-Jun-21 05:00N 56°06' E 012°00'612.1 310 / 201015.010.8 18.0
2017-Jun-21 04:30N 56°08' E 011°50'2617.2
2017-Jun-21 03:00N 56°00' E 011°06'3718.3 300 / 351015.010.8 13.0 18.0
2017-Jun-21 01:00N 55°24' E 010°54'1014.4 300 / 251017.010.8 13.0 15.0
2017-Jun-21 00:18N 55°16' E 011°05'517.1
2017-Jun-21 00:01N 55°11' E 011°05'3166.4
2017-Jun-21 00:00N 55°12' E 011°00'1020.4 290 / 251016.010.8 13.0 15.0
2017-Jun-20 23:30N 55°02' E 011°02'917.2
2017-Jun-20 23:01N 54°55' E 010°55'815.9
2017-Jun-20 22:31N 54°47' E 010°53'714.4
2017-Jun-20 22:01N 54°40' E 010°58'918.0
2017-Jun-20 21:30N 54°36' E 011°11'918.6
2017-Jun-20 21:00N 54°32' E 011°26'3191.1
2017-Jun-20 21:00N 54°30' E 011°30'1514.3 260 / 271017.410.8 16.1 15.0
2017-Jun-20 19:55N 54°23' E 011°53'914.0
2017-Jun-20 19:17N 54°16' E 012°03'3 9.6
2017-Jun-20 18:59N 54°13' E 012°04'3 0.2
2017-Jun-20 03:31N 54°10' E 012°06'1 2.9
2017-Jun-20 03:01N 54°12' E 012°05'1111.9
2017-Jun-20 02:04N 54°22' E 011°57'113.6
2017-Jun-20 02:00N 54°23' E 011°57'511.0
2017-Jun-20 01:31N 54°26' E 012°04'611.7
2017-Jun-20 01:01N 54°29' E 012°13'6380.8
2017-Jun-20 01:00N 54°24' E 012°06'1327.1 260 / 161013.610.8 15.1 15.0
2017-Jun-20 00:31N 54°36' E 012°16'917.1
2017-Jun-20 00:01N 54°42' E 012°27'1413.6
2017-Jun-19 23:00N 54°48' E 012°48'1015.3 210 / 181017.610.8 15.1 15.0
2017-Jun-19 22:21N 54°52' E 013°04'514.2
2017-Jun-19 22:00N 54°53' E 013°12'2713.9
2017-Jun-19 20:05N 55°03' E 013°55'335.2
2017-Jun-19 20:00N 55°00' E 013°54'4232.0 230 / 191017.610.8 15.1 14.1
2017-Jun-19 19:58N 55°04' E 013°57'713.6
2017-Jun-19 19:29N 55°07' E 014°07'714.0
2017-Jun-19 19:00N 55°12' E 014°15'713.9
2017-Jun-19 18:30N 55°18' E 014°23'713.8
2017-Jun-19 18:00N 55°23' E 014°31'713.5
2017-Jun-19 17:29N 55°28' E 014°39'715.0
2017-Jun-19 17:01N 55°32' E 014°50'815.5
2017-Jun-19 16:31N 55°36' E 015°02'815.3
2017-Jun-19 16:00N 55°40' E 015°13'815.1
2017-Jun-19 15:31N 55°44' E 015°25'815.5
2017-Jun-19 15:00N 55°47' E 015°37'1615.9
2017-Jun-19 14:01N 55°55' E 016°01'815.7
2017-Jun-19 13:31N 55°59' E 016°14'815.5
2017-Jun-19 13:01N 56°03' E 016°26'815.8
2017-Jun-19 12:30N 56°07' E 016°38'815.4
2017-Jun-19 12:00N 56°13' E 016°47'816.0
2017-Jun-19 11:31N 56°20' E 016°53'815.9
2017-Jun-19 11:00N 56°28' E 016°58'14715.2
2017-Jun-19 01:22N 58°39' E 018°59'613.9
2017-Jun-19 00:58N 58°44' E 019°04'714.0
2017-Jun-19 00:29N 58°50' E 019°11'613.9
2017-Jun-19 00:00N 58°55' E 019°17'8517.8
2017-Jun-19 00:00N 58°48' E 019°12'1530.5 270 / 201011.010.8 12.2 13.0
2017-Jun-18 23:30N 59°01' E 019°24'713.7
2017-Jun-18 23:01N 59°07' E 019°31'713.6
2017-Jun-18 22:30N 59°13' E 019°38'714.0
2017-Jun-18 22:00N 59°19' E 019°45'714.1
2017-Jun-18 21:30N 59°25' E 019°51'714.3
2017-Jun-18 21:00N 59°32' E 019°57'713.6
2017-Jun-18 20:30N 59°38' E 019°55'713.8
2017-Jun-18 20:01N 59°44' E 019°45'714.0
2017-Jun-18 19:30N 59°47' E 019°34'714.3
2017-Jun-18 19:00N 59°46' E 019°20'816.0
2017-Jun-18 18:31N 59°43' E 019°05'713.2
2017-Jun-18 18:00N 59°39' E 018°54'611.2
2017-Jun-18 17:30N 59°36' E 018°45'611.3
2017-Jun-18 17:00N 59°33' E 018°36'5 9.9
2017-Jun-18 16:30N 59°30' E 018°28'510.6
2017-Jun-18 16:00N 59°25' E 018°24'3 6.7
2017-Jun-18 15:30N 59°22' E 018°25'5 9.9
2017-Jun-18 15:00N 59°21' E 018°15'5 9.8
2017-Jun-18 14:30N 59°19' E 018°07'0 0.0
2017-Jun-17 14:20N 59°19' E 018°06'0 0.0
2017-Jun-17 13:26N 59°19' E 018°06'0 0.0
2017-Jun-17 12:56N 59°19' E 018°06'0 0.0
2017-Jun-17 12:26N 59°19' E 018°06'0 0.0
2017-Jun-17 11:56N 59°19' E 018°06'0 0.0
2017-Jun-17 11:26N 59°19' E 018°06'0 0.0
2017-Jun-17 10:59N 59°19' E 018°06'0 0.0
2017-Jun-17 10:29N 59°19' E 018°06'0 0.0
2017-Jun-17 09:59N 59°19' E 018°06'0 0.0
2017-Jun-17 09:29N 59°19' E 018°06'0 0.0
2017-Jun-17 08:59N 59°19' E 018°06'0 0.0
2017-Jun-17 08:29N 59°19' E 018°06'0 0.0
2017-Jun-17 07:59N 59°19' E 018°06'0 0.7
2017-Jun-17 07:31N 59°19' E 018°07'4 8.5
2017-Jun-17 07:00N 59°21' E 018°14'510.1
2017-Jun-17 06:30N 59°22' E 018°24'3 5.7
2017-Jun-17 06:00N 59°25' E 018°25'510.6
2017-Jun-17 05:30N 59°30' E 018°28'510.2
2017-Jun-17 05:00N 59°33' E 018°36'511.0
2017-Jun-17 04:30N 59°36' E 018°45'611.7
2017-Jun-17 04:01N 59°39' E 018°55'612.8
2017-Jun-17 03:30N 59°43' E 019°05'918.2
2017-Jun-17 03:01N 59°46' E 019°22'3 5.0
2017-Jun-17 02:30N 59°48' E 019°26'0 0.3
2017-Jun-17 02:01N 59°48' E 019°25'0 0.2
2017-Jun-17 01:31N 59°48' E 019°25'0 0.9
2017-Jun-17 01:01N 59°47' E 019°25'1 2.6
2017-Jun-17 00:31N 59°47' E 019°27'611.3
2017-Jun-17 00:00N 59°49' E 019°38'917.2
2017-Jun-16 23:31N 59°44' E 019°52'918.3
2017-Jun-16 23:01N 59°38' E 020°05'918.0
2017-Jun-16 22:31N 59°36' E 020°23'918.4
2017-Jun-16 22:01N 59°35' E 020°41'1019.1
2017-Jun-16 21:31N 59°33' E 020°59'1019.2
2017-Jun-16 21:01N 59°32' E 021°18'1019.3
2017-Jun-16 20:31N 59°30' E 021°37'1019.3
2017-Jun-16 20:01N 59°29' E 021°56'1019.5
2017-Jun-16 19:31N 59°28' E 022°15'1019.1
2017-Jun-16 19:01N 59°30' E 022°33'298.6
2017-Jun-16 19:00N 59°30' E 022°30'1123.2 070 / 101010.010.8 14.2 13.0
2017-Jun-16 18:31N 59°33' E 022°51'1019.3
2017-Jun-16 18:01N 59°36' E 023°10'7447.2
2017-Jun-16 18:00N 59°30' E 023°00'1634.1 050 / 61010.110.8 16.0 13.0
2017-Jun-16 17:31N 59°38' E 023°28'1019.1
2017-Jun-16 17:01N 59°41' E 023°46'1019.1
2017-Jun-16 16:31N 59°44' E 024°04'1019.0
2017-Jun-16 16:00N 59°47' E 024°22'918.1
2017-Jun-16 15:31N 59°51' E 024°38'917.8
2017-Jun-16 15:00N 59°58' E 024°50'611.4
2017-Jun-16 14:31N 60°03' E 024°54'  

Dump ship's entire track history